PWSweather.com
Personal Weather Stations
Station Observations

YeovilGB

Lat: 50.949, Lon: -2.627

Elevation: 70

Station Type: Vantage Pro

http://www.yeovil-weather.me.uk/

High Low Average
Temperature 70.3°F21.3°C 51.0°F10.6°C 61.2°F16.2°C
Dew Point 58.5°F14.7°C 48.5°F9.2°C 54.9°F12.7°C
Winds 9.2 mph 14.8 kmh Calm Calm 3.0 mph SE4.8 kmh SE
Wind Gusts 19.6 mph31.5 kmh -- 7.0 mph11.3 kmh
Humidity 93% 60% 80%
Pressure 30.12 in1020.0 mb 29.93 in1013.5 mb -
Precipitation 0.00 in0.0 mm - -
Hour Temp Dew Point Humidity Winds Wind Gusts Pressure Precip Precip Rate Daily Precip Total
12:00 AM 56.1°F13.4°C 51.9°F11.1°C 86% Calm Calm -- 30.12 in1020.0 mb - 0.00 in0.0 mm 0.00 in0.0 mm
12:10 AM 55.8°F13.2°C 52.0°F11.1°C 87% Calm Calm -- 30.12 in1020.0 mb - 0.00 in0.0 mm 0.00 in0.0 mm
12:20 AM 55.5°F13.1°C 51.7°F10.9°C 87% Calm Calm -- 30.12 in1020.0 mb - 0.00 in0.0 mm 0.00 in0.0 mm
12:30 AM 55.3°F12.9°C 51.5°F10.8°C 87% Calm Calm -- 30.12 in1020.0 mb - 0.00 in0.0 mm 0.00 in0.0 mm
12:40 AM 55.0°F12.8°C 51.5°F10.8°C 88% Calm Calm -- 30.12 in1020.0 mb - 0.00 in0.0 mm 0.00 in0.0 mm
12:50 AM 54.7°F12.6°C 51.2°F10.7°C 88% Calm Calm -- 30.11 in1019.6 mb - 0.00 in0.0 mm 0.00 in0.0 mm
01:00 AM 54.5°F12.5°C 51.3°F10.7°C 89% Calm Calm 1.2 mph1.9 kmh 30.11 in1019.6 mb - 0.00 in0.0 mm 0.00 in0.0 mm
01:10 AM 54.6°F12.6°C 51.4°F10.8°C 89% Calm Calm -- 30.11 in1019.6 mb - 0.00 in0.0 mm 0.00 in0.0 mm
01:20 AM 54.5°F12.5°C 51.3°F10.7°C 89% Calm Calm -- 30.11 in1019.6 mb - 0.00 in0.0 mm 0.00 in0.0 mm
01:30 AM 54.3°F12.4°C 51.1°F10.6°C 89% Calm Calm -- 30.11 in1019.6 mb - 0.00 in0.0 mm 0.00 in0.0 mm
01:40 AM 53.9°F12.2°C 50.7°F10.4°C 89% Calm Calm -- 30.11 in1019.6 mb - 0.00 in0.0 mm 0.00 in0.0 mm
01:50 AM 53.5°F11.9°C 50.3°F10.2°C 89% Calm Calm -- 30.11 in1019.6 mb - 0.00 in0.0 mm 0.00 in0.0 mm
02:00 AM 53.3°F11.8°C 50.1°F10.1°C 89% Calm Calm -- 30.11 in1019.6 mb - 0.00 in0.0 mm 0.00 in0.0 mm
02:10 AM 53.0°F11.7°C 50.2°F10.1°C 90% Calm Calm -- 30.11 in1019.6 mb - 0.00 in0.0 mm 0.00 in0.0 mm
02:20 AM 52.8°F11.6°C 49.9°F9.9°C 90% Calm Calm -- 30.11 in1019.6 mb - 0.00 in0.0 mm 0.00 in0.0 mm
02:30 AM 52.6°F11.4°C 49.8°F9.9°C 90% Calm Calm -- 30.11 in1019.6 mb - 0.00 in0.0 mm 0.00 in0.0 mm
02:40 AM 52.4°F11.3°C 49.8°F9.9°C 91% Calm Calm -- 30.11 in1019.6 mb - 0.00 in0.0 mm 0.00 in0.0 mm
02:50 AM 52.2°F11.2°C 49.7°F9.8°C 91% Calm Calm -- 30.11 in1019.6 mb - 0.00 in0.0 mm 0.00 in0.0 mm
03:00 AM 52.0°F11.1°C 49.5°F9.7°C 91% Calm Calm -- 30.11 in1019.6 mb - 0.00 in0.0 mm 0.00 in0.0 mm
03:10 AM 51.9°F11.1°C 49.3°F9.6°C 91% Calm Calm -- 30.11 in1019.6 mb - 0.00 in0.0 mm 0.00 in0.0 mm
03:20 AM 51.5°F10.8°C 49.0°F9.4°C 91% Calm Calm -- 30.11 in1019.6 mb - 0.00 in0.0 mm 0.00 in0.0 mm
03:30 AM 51.3°F10.7°C 48.8°F9.3°C 91% Calm Calm -- 30.11 in1019.6 mb - 0.00 in0.0 mm 0.00 in0.0 mm
03:40 AM 51.1°F10.6°C 48.6°F9.2°C 91% Calm Calm -- 30.11 in1019.6 mb - 0.00 in0.0 mm 0.00 in0.0 mm
03:50 AM 51.0°F10.6°C 48.5°F9.2°C 91% Calm Calm -- 30.11 in1019.6 mb - 0.00 in0.0 mm 0.00 in0.0 mm
04:00 AM 51.0°F10.6°C 48.8°F9.3°C 92% Calm Calm -- 30.11 in1019.6 mb - 0.00 in0.0 mm 0.00 in0.0 mm
04:10 AM 51.3°F10.7°C 49.3°F9.6°C 93% Calm Calm -- 30.11 in1019.6 mb - 0.00 in0.0 mm 0.00 in0.0 mm
04:20 AM 51.5°F10.8°C 49.5°F9.7°C 93% Calm Calm -- 30.11 in1019.6 mb - 0.00 in0.0 mm 0.00 in0.0 mm
04:30 AM 51.6°F10.9°C 49.7°F9.8°C 93% Calm Calm -- 30.11 in1019.6 mb - 0.00 in0.0 mm 0.00 in0.0 mm
04:40 AM 51.8°F11.0°C 49.8°F9.9°C 93% Calm Calm -- 30.10 in1019.3 mb - 0.00 in0.0 mm 0.00 in0.0 mm
04:50 AM 52.0°F11.1°C 50.0°F10.0°C 93% Calm Calm -- 30.10 in1019.3 mb - 0.00 in0.0 mm 0.00 in0.0 mm
05:00 AM 52.1°F11.2°C 49.8°F9.9°C 92% Calm Calm -- 30.10 in1019.3 mb - 0.00 in0.0 mm 0.00 in0.0 mm
05:10 AM 52.1°F11.2°C 49.8°F9.9°C 92% Calm Calm -- 30.11 in1019.6 mb - 0.00 in0.0 mm 0.00 in0.0 mm
05:20 AM 52.3°F11.3°C 50.4°F10.2°C 93% Calm Calm -- 30.11 in1019.6 mb - 0.00 in0.0 mm 0.00 in0.0 mm
05:30 AM 52.7°F11.5°C 50.4°F10.2°C 92% Calm Calm -- 30.10 in1019.3 mb - 0.00 in0.0 mm 0.00 in0.0 mm
05:40 AM 53.1°F11.7°C 50.8°F10.4°C 92% Calm Calm -- 30.10 in1019.3 mb - 0.00 in0.0 mm 0.00 in0.0 mm
05:50 AM 53.3°F11.8°C 50.7°F10.4°C 91% Calm Calm -- 30.09 in1019.0 mb - 0.00 in0.0 mm 0.00 in0.0 mm
06:00 AM 53.7°F12.1°C 51.2°F10.7°C 91% Calm Calm -- 30.10 in1019.3 mb - 0.00 in0.0 mm 0.00 in0.0 mm
06:10 AM 54.1°F12.3°C 51.6°F10.9°C 91% Calm Calm -- 30.10 in1019.3 mb - 0.00 in0.0 mm 0.00 in0.0 mm
06:20 AM 54.8°F12.7°C 51.9°F11.1°C 90% Calm Calm 2.3 mph3.7 kmh 30.10 in1019.3 mb - 0.00 in0.0 mm 0.00 in0.0 mm
06:30 AM 55.6°F13.1°C 52.7°F11.5°C 90% Calm Calm 2.3 mph3.7 kmh 30.10 in1019.3 mb - 0.00 in0.0 mm 0.00 in0.0 mm
06:40 AM 56.5°F13.6°C 53.3°F11.8°C 89% 2.3 mph SSW3.7 kmh SSW 4.6 mph7.4 kmh 30.10 in1019.3 mb - 0.00 in0.0 mm 0.00 in0.0 mm
06:50 AM 57.3°F14.1°C 53.5°F11.9°C 87% Calm Calm 3.5 mph5.6 kmh 30.10 in1019.3 mb - 0.00 in0.0 mm 0.00 in0.0 mm
07:00 AM 58.5°F14.7°C 54.3°F12.4°C 86% 1.2 mph SE1.9 kmh SE 2.3 mph3.7 kmh 30.10 in1019.3 mb - 0.00 in0.0 mm 0.00 in0.0 mm
07:10 AM 59.7°F15.4°C 54.8°F12.7°C 84% 4.6 mph S7.4 kmh S 6.9 mph11.1 kmh 30.10 in1019.3 mb - 0.00 in0.0 mm 0.00 in0.0 mm
07:20 AM 60.8°F16.0°C 55.0°F12.8°C 81% 4.6 mph S7.4 kmh S 8.1 mph13.0 kmh 30.10 in1019.3 mb - 0.00 in0.0 mm 0.00 in0.0 mm
07:30 AM 62.2°F16.8°C 55.3°F12.9°C 78% 4.6 mph SSE7.4 kmh SSE 6.9 mph11.1 kmh 30.10 in1019.3 mb - 0.00 in0.0 mm 0.00 in0.0 mm
07:40 AM 63.4°F17.4°C 56.1°F13.4°C 77% 4.6 mph S7.4 kmh S 6.9 mph11.1 kmh 30.10 in1019.3 mb - 0.00 in0.0 mm 0.00 in0.0 mm
07:50 AM 64.3°F17.9°C 55.8°F13.2°C 74% 5.8 mph S9.3 kmh S 9.2 mph14.8 kmh 30.10 in1019.3 mb - 0.00 in0.0 mm 0.00 in0.0 mm
08:00 AM 65.1°F18.4°C 56.2°F13.4°C 73% 4.6 mph S7.4 kmh S 5.8 mph9.3 kmh 30.10 in1019.3 mb - 0.00 in0.0 mm 0.00 in0.0 mm
08:10 AM 65.7°F18.7°C 56.4°F13.6°C 72% 3.5 mph SW5.6 kmh SW 5.8 mph9.3 kmh 30.10 in1019.3 mb - 0.00 in0.0 mm 0.00 in0.0 mm
08:20 AM 66.5°F19.2°C 56.4°F13.6°C 70% 3.5 mph S5.6 kmh S 10.4 mph16.7 kmh 30.10 in1019.3 mb - 0.00 in0.0 mm 0.00 in0.0 mm
08:30 AM 66.7°F19.3°C 55.8°F13.2°C 68% 4.6 mph S7.4 kmh S 6.9 mph11.1 kmh 30.10 in1019.3 mb - 0.00 in0.0 mm 0.00 in0.0 mm
08:40 AM 67.5°F19.7°C 57.0°F13.9°C 69% 4.6 mph SSW7.4 kmh SSW 8.1 mph13.0 kmh 30.10 in1019.3 mb - 0.00 in0.0 mm 0.00 in0.0 mm
08:50 AM 68.1°F20.1°C 57.1°F13.9°C 68% 2.3 mph S3.7 kmh S 5.8 mph9.3 kmh 30.10 in1019.3 mb - 0.00 in0.0 mm 0.00 in0.0 mm
09:00 AM 67.8°F19.9°C 56.4°F13.6°C 67% 4.6 mph S7.4 kmh S 10.4 mph16.7 kmh 30.10 in1019.3 mb - 0.00 in0.0 mm 0.00 in0.0 mm
09:10 AM 67.5°F19.7°C 56.6°F13.7°C 68% 4.6 mph SW7.4 kmh SW 11.5 mph18.5 kmh 30.10 in1019.3 mb - 0.00 in0.0 mm 0.00 in0.0 mm
09:20 AM 67.1°F19.5°C 55.8°F13.2°C 67% 6.9 mph S11.1 kmh S 11.5 mph18.5 kmh 30.10 in1019.3 mb - 0.00 in0.0 mm 0.00 in0.0 mm
09:30 AM 67.3°F19.6°C 56.4°F13.6°C 68% 5.8 mph S9.3 kmh S 12.7 mph20.4 kmh 30.10 in1019.3 mb - 0.00 in0.0 mm 0.00 in0.0 mm
09:40 AM 68.0°F20.0°C 57.8°F14.3°C 70% 2.3 mph SSW3.7 kmh SSW 6.9 mph11.1 kmh 30.10 in1019.3 mb - 0.00 in0.0 mm 0.00 in0.0 mm
09:50 AM 68.5°F20.3°C 56.3°F13.5°C 65% 3.5 mph SSW5.6 kmh SSW 8.1 mph13.0 kmh 30.10 in1019.3 mb - 0.00 in0.0 mm 0.00 in0.0 mm
10:00 AM 69.1°F20.6°C 57.3°F14.1°C 66% 4.6 mph SSE7.4 kmh SSE 9.2 mph14.8 kmh 30.09 in1019.0 mb - 0.00 in0.0 mm 0.00 in0.0 mm
10:10 AM 69.5°F20.8°C 58.0°F14.4°C 67% 4.6 mph S7.4 kmh S 11.5 mph18.5 kmh 30.09 in1019.0 mb - 0.00 in0.0 mm 0.00 in0.0 mm
10:20 AM 70.0°F21.1°C 57.7°F14.3°C 65% 3.5 mph S5.6 kmh S 15.0 mph24.1 kmh 30.09 in1019.0 mb - 0.00 in0.0 mm 0.00 in0.0 mm
10:30 AM 70.0°F21.1°C 56.8°F13.8°C 63% 6.9 mph SSW11.1 kmh SSW 11.5 mph18.5 kmh 30.09 in1019.0 mb - 0.00 in0.0 mm 0.00 in0.0 mm
10:40 AM 70.3°F21.3°C 56.2°F13.4°C 61% 8.1 mph SSW13.0 kmh SSW 10.4 mph16.7 kmh 30.09 in1019.0 mb - 0.00 in0.0 mm 0.00 in0.0 mm
10:50 AM 70.1°F21.2°C 56.9°F13.8°C 63% 2.3 mph SSW3.7 kmh SSW 10.4 mph16.7 kmh 30.09 in1019.0 mb - 0.00 in0.0 mm 0.00 in0.0 mm
11:00 AM 69.7°F20.9°C 55.6°F13.1°C 61% 6.9 mph SSW11.1 kmh SSW 11.5 mph18.5 kmh 30.09 in1019.0 mb - 0.00 in0.0 mm 0.00 in0.0 mm
11:10 AM 69.3°F20.7°C 54.8°F12.7°C 60% 8.1 mph S13.0 kmh S 13.8 mph22.2 kmh 30.09 in1019.0 mb - 0.00 in0.0 mm 0.00 in0.0 mm
11:20 AM 68.5°F20.3°C 55.8°F13.2°C 64% 4.6 mph S7.4 kmh S 16.1 mph25.9 kmh 30.09 in1019.0 mb - 0.00 in0.0 mm 0.00 in0.0 mm
11:30 AM 68.8°F20.4°C 56.5°F13.6°C 65% 4.6 mph SSW7.4 kmh SSW 11.5 mph18.5 kmh 30.08 in1018.6 mb - 0.00 in0.0 mm 0.00 in0.0 mm
11:40 AM 69.4°F20.8°C 56.3°F13.5°C 63% 4.6 mph S7.4 kmh S 12.7 mph20.4 kmh 30.08 in1018.6 mb - 0.00 in0.0 mm 0.00 in0.0 mm
11:50 AM 69.4°F20.8°C 56.7°F13.7°C 64% 5.8 mph S9.3 kmh S 12.7 mph20.4 kmh 30.07 in1018.3 mb - 0.00 in0.0 mm 0.00 in0.0 mm
12:00 PM 69.3°F20.7°C 57.0°F13.9°C 65% 6.9 mph S11.1 kmh S 11.5 mph18.5 kmh 30.07 in1018.3 mb - 0.00 in0.0 mm 0.00 in0.0 mm
12:10 PM 69.4°F20.8°C 58.4°F14.7°C 68% 8.1 mph SSW13.0 kmh SSW 15.0 mph24.1 kmh 30.07 in1018.3 mb - 0.00 in0.0 mm 0.00 in0.0 mm
12:20 PM 68.8°F20.4°C 57.8°F14.3°C 68% 5.8 mph S9.3 kmh S 8.1 mph13.0 kmh 30.07 in1018.3 mb - 0.00 in0.0 mm 0.00 in0.0 mm
12:30 PM 68.7°F20.4°C 58.1°F14.5°C 69% 6.9 mph S11.1 kmh S 18.4 mph29.6 kmh 30.07 in1018.3 mb - 0.00 in0.0 mm 0.00 in0.0 mm
12:40 PM 68.0°F20.0°C 57.9°F14.4°C 70% 8.1 mph SSW13.0 kmh SSW 11.5 mph18.5 kmh 30.07 in1018.3 mb - 0.00 in0.0 mm 0.00 in0.0 mm
12:50 PM 67.1°F19.5°C 56.9°F13.8°C 70% 5.8 mph SSW9.3 kmh SSW 8.1 mph13.0 kmh 30.07 in1018.3 mb - 0.00 in0.0 mm 0.00 in0.0 mm
01:00 PM 66.8°F19.3°C 57.5°F14.2°C 72% 9.2 mph SSW14.8 kmh SSW 15.0 mph24.1 kmh 30.07 in1018.3 mb - 0.00 in0.0 mm 0.00 in0.0 mm
01:10 PM 66.8°F19.3°C 57.5°F14.2°C 72% 6.9 mph S11.1 kmh S 12.7 mph20.4 kmh 30.06 in1017.9 mb - 0.00 in0.0 mm 0.00 in0.0 mm
01:20 PM 66.7°F19.3°C 57.8°F14.3°C 73% 6.9 mph SW11.1 kmh SW 13.8 mph22.2 kmh 30.06 in1017.9 mb - 0.00 in0.0 mm 0.00 in0.0 mm
01:30 PM 66.4°F19.1°C 57.8°F14.3°C 74% 4.6 mph S7.4 kmh S 10.4 mph16.7 kmh 30.06 in1017.9 mb - 0.00 in0.0 mm 0.00 in0.0 mm
01:40 PM 66.0°F18.9°C 57.8°F14.3°C 75% 6.9 mph SSW11.1 kmh SSW 11.5 mph18.5 kmh 30.06 in1017.9 mb - 0.00 in0.0 mm 0.00 in0.0 mm
01:50 PM 66.8°F19.3°C 58.2°F14.6°C 74% 9.2 mph S14.8 kmh S 15.0 mph24.1 kmh 30.05 in1017.6 mb - 0.00 in0.0 mm 0.00 in0.0 mm
02:00 PM 67.3°F19.6°C 58.0°F14.4°C 72% 9.2 mph S14.8 kmh S 15.0 mph24.1 kmh 30.05 in1017.6 mb - 0.00 in0.0 mm 0.00 in0.0 mm
02:10 PM 67.3°F19.6°C 58.0°F14.4°C 72% 9.2 mph SSW14.8 kmh SSW 19.6 mph31.5 kmh 30.05 in1017.6 mb - 0.00 in0.0 mm 0.00 in0.0 mm
02:20 PM 67.6°F19.8°C 57.8°F14.3°C 71% 5.8 mph SSE9.3 kmh SSE 19.6 mph31.5 kmh 30.05 in1017.6 mb - 0.00 in0.0 mm 0.00 in0.0 mm
02:30 PM 67.6°F19.8°C 57.9°F14.4°C 71% 5.8 mph SSW9.3 kmh SSW 10.4 mph16.7 kmh 30.04 in1017.3 mb - 0.00 in0.0 mm 0.00 in0.0 mm
02:40 PM 68.2°F20.1°C 58.0°F14.4°C 70% 8.1 mph SSE13.0 kmh SSE 15.0 mph24.1 kmh 30.04 in1017.3 mb - 0.00 in0.0 mm 0.00 in0.0 mm
02:50 PM 68.6°F20.3°C 57.6°F14.2°C 68% 5.8 mph SSW9.3 kmh SSW 13.8 mph22.2 kmh 30.04 in1017.3 mb - 0.00 in0.0 mm 0.00 in0.0 mm
03:00 PM 67.9°F19.9°C 56.9°F13.8°C 68% 6.9 mph S11.1 kmh S 19.6 mph31.5 kmh 30.04 in1017.3 mb - 0.00 in0.0 mm 0.00 in0.0 mm
03:10 PM 67.2°F19.6°C 57.5°F14.2°C 71% 8.1 mph SSW13.0 kmh SSW 19.6 mph31.5 kmh 30.04 in1017.3 mb - 0.00 in0.0 mm 0.00 in0.0 mm
03:20 PM 67.3°F19.6°C 58.3°F14.6°C 73% 5.8 mph SSW9.3 kmh SSW 11.5 mph18.5 kmh 30.03 in1016.9 mb - 0.00 in0.0 mm 0.00 in0.0 mm
03:30 PM 67.1°F19.5°C 58.1°F14.5°C 73% 5.8 mph S9.3 kmh S 11.5 mph18.5 kmh 30.03 in1016.9 mb - 0.00 in0.0 mm 0.00 in0.0 mm
03:40 PM 66.2°F19.0°C 58.0°F14.4°C 75% 9.2 mph S14.8 kmh S 16.1 mph25.9 kmh 30.03 in1016.9 mb - 0.00 in0.0 mm 0.00 in0.0 mm
03:50 PM 65.8°F18.8°C 58.4°F14.7°C 77% 6.9 mph S11.1 kmh S 10.4 mph16.7 kmh 30.03 in1016.9 mb - 0.00 in0.0 mm 0.00 in0.0 mm
04:00 PM 66.2°F19.0°C 58.4°F14.7°C 76% 4.6 mph S7.4 kmh S 11.5 mph18.5 kmh 30.03 in1016.9 mb - 0.00 in0.0 mm 0.00 in0.0 mm
04:10 PM 65.9°F18.8°C 58.5°F14.7°C 77% 3.5 mph S5.6 kmh S 15.0 mph24.1 kmh 30.03 in1016.9 mb - 0.00 in0.0 mm 0.00 in0.0 mm
04:20 PM 65.4°F18.6°C 58.0°F14.4°C 77% 6.9 mph S11.1 kmh S 10.4 mph16.7 kmh 30.02 in1016.6 mb - 0.00 in0.0 mm 0.00 in0.0 mm
04:30 PM 64.5°F18.1°C 57.5°F14.2°C 78% 9.2 mph S14.8 kmh S 12.7 mph20.4 kmh 30.02 in1016.6 mb - 0.00 in0.0 mm 0.00 in0.0 mm
04:40 PM 63.5°F17.5°C 57.2°F14.0°C 80% 3.5 mph SSW5.6 kmh SSW 8.1 mph13.0 kmh 30.02 in1016.6 mb - 0.00 in0.0 mm 0.00 in0.0 mm
04:50 PM 63.1°F17.3°C 57.5°F14.2°C 82% 3.5 mph S5.6 kmh S 9.2 mph14.8 kmh 30.02 in1016.6 mb - 0.00 in0.0 mm 0.00 in0.0 mm
05:00 PM 63.2°F17.3°C 58.0°F14.4°C 83% 1.2 mph SW1.9 kmh SW 2.3 mph3.7 kmh 30.01 in1016.3 mb - 0.00 in0.0 mm 0.00 in0.0 mm
05:10 PM 63.1°F17.3°C 57.5°F14.2°C 82% 3.5 mph S5.6 kmh S 9.2 mph14.8 kmh 30.01 in1016.3 mb - 0.00 in0.0 mm 0.00 in0.0 mm
05:20 PM 63.2°F17.3°C 57.6°F14.2°C 82% 4.6 mph SSW7.4 kmh SSW 11.5 mph18.5 kmh 30.01 in1016.3 mb - 0.00 in0.0 mm 0.00 in0.0 mm
05:30 PM 63.0°F17.2°C 57.4°F14.1°C 82% 1.2 mph SSW1.9 kmh SSW 5.8 mph9.3 kmh 30.01 in1016.3 mb - 0.00 in0.0 mm 0.00 in0.0 mm
05:40 PM 62.7°F17.1°C 57.5°F14.2°C 83% 2.3 mph SW3.7 kmh SW 6.9 mph11.1 kmh 30.01 in1016.3 mb - 0.00 in0.0 mm 0.00 in0.0 mm
05:50 PM 62.4°F16.9°C 57.5°F14.2°C 84% 1.2 mph SSW1.9 kmh SSW 11.5 mph18.5 kmh 30.01 in1016.3 mb - 0.00 in0.0 mm 0.00 in0.0 mm
06:00 PM 62.1°F16.7°C 57.5°F14.2°C 85% 4.6 mph S7.4 kmh S 9.2 mph14.8 kmh 30.00 in1015.9 mb - 0.00 in0.0 mm 0.00 in0.0 mm
06:10 PM 61.8°F16.6°C 57.2°F14.0°C 85% 3.5 mph S5.6 kmh S 18.4 mph29.6 kmh 30.00 in1015.9 mb - 0.00 in0.0 mm 0.00 in0.0 mm
06:20 PM 61.7°F16.5°C 57.5°F14.2°C 86% 3.5 mph S5.6 kmh S 13.8 mph22.2 kmh 30.00 in1015.9 mb - 0.00 in0.0 mm 0.00 in0.0 mm
06:30 PM 61.7°F16.5°C 57.5°F14.2°C 86% 1.2 mph S1.9 kmh S 5.8 mph9.3 kmh 30.00 in1015.9 mb - 0.00 in0.0 mm 0.00 in0.0 mm
06:40 PM 61.8°F16.6°C 57.2°F14.0°C 85% 2.3 mph S3.7 kmh S 5.8 mph9.3 kmh 30.00 in1015.9 mb - 0.00 in0.0 mm 0.00 in0.0 mm
06:50 PM 61.9°F16.6°C 57.0°F13.9°C 84% 1.2 mph SSW1.9 kmh SSW 4.6 mph7.4 kmh 30.00 in1015.9 mb - 0.00 in0.0 mm 0.00 in0.0 mm
07:00 PM 62.0°F16.7°C 57.1°F13.9°C 84% 3.5 mph SSW5.6 kmh SSW 8.1 mph13.0 kmh 29.99 in1015.6 mb - 0.00 in0.0 mm 0.00 in0.0 mm
07:10 PM 61.8°F16.6°C 56.9°F13.8°C 84% 1.2 mph S1.9 kmh S 3.5 mph5.6 kmh 29.99 in1015.6 mb - 0.00 in0.0 mm 0.00 in0.0 mm
07:20 PM 61.6°F16.4°C 56.7°F13.7°C 84% 1.2 mph SW1.9 kmh SW 5.8 mph9.3 kmh 29.99 in1015.6 mb - 0.00 in0.0 mm 0.00 in0.0 mm
07:30 PM 61.5°F16.4°C 56.6°F13.7°C 84% 1.2 mph S1.9 kmh S 4.6 mph7.4 kmh 29.99 in1015.6 mb - 0.00 in0.0 mm 0.00 in0.0 mm
07:40 PM 61.4°F16.3°C 56.5°F13.6°C 84% Calm Calm 2.3 mph3.7 kmh 29.99 in1015.6 mb - 0.00 in0.0 mm 0.00 in0.0 mm
07:50 PM 61.4°F16.3°C 56.6°F13.7°C 84% 2.3 mph S3.7 kmh S 9.2 mph14.8 kmh 29.98 in1015.2 mb - 0.00 in0.0 mm 0.00 in0.0 mm
08:10 PM 61.5°F16.4°C 56.2°F13.4°C 83% 1.2 mph SSW1.9 kmh SSW 2.3 mph3.7 kmh 29.98 in1015.2 mb - 0.00 in0.0 mm 0.00 in0.0 mm
08:20 PM 61.3°F16.3°C 56.1°F13.4°C 83% Calm Calm 1.2 mph1.9 kmh 29.98 in1015.2 mb - 0.00 in0.0 mm 0.00 in0.0 mm
08:30 PM 61.1°F16.2°C 55.9°F13.3°C 83% 2.3 mph S3.7 kmh S 4.6 mph7.4 kmh 29.98 in1015.2 mb - 0.00 in0.0 mm 0.00 in0.0 mm
08:40 PM 61.0°F16.1°C 55.5°F13.1°C 82% 1.2 mph S1.9 kmh S 5.8 mph9.3 kmh 29.98 in1015.2 mb - 0.00 in0.0 mm 0.00 in0.0 mm
08:50 PM 60.9°F16.1°C 55.4°F13.0°C 82% 1.2 mph SSW1.9 kmh SSW 4.6 mph7.4 kmh 29.98 in1015.2 mb - 0.00 in0.0 mm 0.00 in0.0 mm
09:00 PM 60.7°F15.9°C 54.8°F12.7°C 81% 1.2 mph S1.9 kmh S 5.8 mph9.3 kmh 29.98 in1015.2 mb - 0.00 in0.0 mm 0.00 in0.0 mm
09:10 PM 60.5°F15.8°C 54.6°F12.6°C 81% 1.2 mph SSW1.9 kmh SSW 6.9 mph11.1 kmh 29.98 in1015.2 mb - 0.00 in0.0 mm 0.00 in0.0 mm
09:20 PM 60.3°F15.7°C 54.8°F12.7°C 82% Calm Calm 8.1 mph13.0 kmh 29.98 in1015.2 mb - 0.00 in0.0 mm 0.00 in0.0 mm
09:30 PM 60.1°F15.6°C 54.5°F12.5°C 82% Calm Calm 3.5 mph5.6 kmh 29.98 in1015.2 mb - 0.00 in0.0 mm 0.00 in0.0 mm
09:40 PM 59.9°F15.5°C 54.7°F12.6°C 83% 4.6 mph SSW7.4 kmh SSW 10.4 mph16.7 kmh 29.98 in1015.2 mb - 0.00 in0.0 mm 0.00 in0.0 mm
09:50 PM 59.8°F15.4°C 55.0°F12.8°C 84% Calm Calm 1.2 mph1.9 kmh 29.98 in1015.2 mb - 0.00 in0.0 mm 0.00 in0.0 mm
10:00 PM 59.7°F15.4°C 55.2°F12.9°C 85% 2.3 mph S3.7 kmh S 9.2 mph14.8 kmh 29.98 in1015.2 mb - 0.00 in0.0 mm 0.00 in0.0 mm
10:10 PM 59.6°F15.3°C 55.4°F13.0°C 86% 4.6 mph SSW7.4 kmh SSW 11.5 mph18.5 kmh 29.97 in1014.9 mb - 0.00 in0.0 mm 0.00 in0.0 mm
10:20 PM 59.5°F15.3°C 55.3°F12.9°C 86% 4.6 mph SSW7.4 kmh SSW 10.4 mph16.7 kmh 29.97 in1014.9 mb - 0.00 in0.0 mm 0.00 in0.0 mm
10:30 PM 59.5°F15.3°C 55.3°F12.9°C 86% 2.3 mph SSW3.7 kmh SSW 9.2 mph14.8 kmh 29.97 in1014.9 mb - 0.00 in0.0 mm 0.00 in0.0 mm
10:40 PM 59.4°F15.2°C 55.5°F13.1°C 87% 4.6 mph SW7.4 kmh SW 11.5 mph18.5 kmh 29.97 in1014.9 mb - 0.00 in0.0 mm 0.00 in0.0 mm
10:50 PM 59.4°F15.2°C 55.5°F13.1°C 87% 1.2 mph SSW1.9 kmh SSW 8.1 mph13.0 kmh 29.96 in1014.6 mb - 0.00 in0.0 mm 0.00 in0.0 mm
11:00 PM 59.3°F15.2°C 55.4°F13.0°C 87% 1.2 mph SSW1.9 kmh SSW 5.8 mph9.3 kmh 29.96 in1014.6 mb - 0.00 in0.0 mm 0.00 in0.0 mm
11:10 PM 59.2°F15.1°C 55.3°F12.9°C 87% 2.3 mph S3.7 kmh S 10.4 mph16.7 kmh 29.95 in1014.2 mb - 0.00 in0.0 mm 0.00 in0.0 mm
11:20 PM 59.0°F15.0°C 55.1°F12.8°C 87% 1.2 mph SSW1.9 kmh SSW 8.1 mph13.0 kmh 29.95 in1014.2 mb - 0.00 in0.0 mm 0.00 in0.0 mm
11:30 PM 58.8°F14.9°C 54.6°F12.6°C 86% 4.6 mph SW7.4 kmh SW 9.2 mph14.8 kmh 29.95 in1014.2 mb - 0.00 in0.0 mm 0.00 in0.0 mm
11:40 PM 58.7°F14.8°C 54.5°F12.5°C 86% 3.5 mph S5.6 kmh S 11.5 mph18.5 kmh 29.94 in1013.9 mb - 0.00 in0.0 mm 0.00 in0.0 mm
11:50 PM 58.7°F14.8°C 54.5°F12.5°C 86% 4.6 mph S7.4 kmh S 13.8 mph22.2 kmh 29.93 in1013.5 mb - 0.00 in0.0 mm 0.00 in0.0 mm